sensor_id;sensor_type;location;lat;lon;timestamp;P1;durP1;ratioP1;P2;durP2;ratioP2
11431;SDS011;5772;50.940;6.782;2023-08-08T00:02:02;16.53;;;15.83;;
11431;SDS011;5772;50.940;6.782;2023-08-08T00:04:27;17.63;;;16.93;;
11431;SDS011;5772;50.940;6.782;2023-08-08T00:06:53;17.03;;;16.23;;
11431;SDS011;5772;50.940;6.782;2023-08-08T00:09:18;17.57;;;16.77;;
11431;SDS011;5772;50.940;6.782;2023-08-08T00:11:44;16.63;;;15.93;;
11431;SDS011;5772;50.940;6.782;2023-08-08T00:14:09;16.97;;;16.27;;
11431;SDS011;5772;50.940;6.782;2023-08-08T00:16:36;17.23;;;16.43;;
11431;SDS011;5772;50.940;6.782;2023-08-08T00:19:01;17.40;;;16.60;;
11431;SDS011;5772;50.940;6.782;2023-08-08T00:21:26;18.33;;;17.53;;
11431;SDS011;5772;50.940;6.782;2023-08-08T00:23:52;18.73;;;17.83;;
11431;SDS011;5772;50.940;6.782;2023-08-08T00:26:17;18.93;;;17.83;;
11431;SDS011;5772;50.940;6.782;2023-08-08T00:28:42;18.13;;;17.33;;
11431;SDS011;5772;50.940;6.782;2023-08-08T00:31:08;18.33;;;17.43;;
11431;SDS011;5772;50.940;6.782;2023-08-08T00:33:34;19.20;;;18.40;;
11431;SDS011;5772;50.940;6.782;2023-08-08T00:36:00;18.57;;;17.77;;
11431;SDS011;5772;50.940;6.782;2023-08-08T00:38:25;17.17;;;16.47;;
11431;SDS011;5772;50.940;6.782;2023-08-08T00:40:50;17.17;;;16.47;;
11431;SDS011;5772;50.940;6.782;2023-08-08T00:43:16;17.60;;;16.83;;
11431;SDS011;5772;50.940;6.782;2023-08-08T00:45:41;17.43;;;16.63;;
11431;SDS011;5772;50.940;6.782;2023-08-08T00:48:07;17.47;;;16.67;;
11431;SDS011;5772;50.940;6.782;2023-08-08T00:50:34;19.17;;;18.13;;
11431;SDS011;5772;50.940;6.782;2023-08-08T00:52:59;19.33;;;17.97;;
11431;SDS011;5772;50.940;6.782;2023-08-08T00:55:25;17.57;;;16.77;;
11431;SDS011;5772;50.940;6.782;2023-08-08T00:57:50;18.77;;;17.87;;
11431;SDS011;5772;50.940;6.782;2023-08-08T01:00:16;17.60;;;16.77;;
11431;SDS011;5772;50.940;6.782;2023-08-08T01:02:41;16.80;;;16.10;;
11431;SDS011;5772;50.940;6.782;2023-08-08T01:05:07;17.27;;;16.47;;
11431;SDS011;5772;50.940;6.782;2023-08-08T01:07:36;18.07;;;17.27;;
11431;SDS011;5772;50.940;6.782;2023-08-08T01:10:05;16.80;;;16.10;;
11431;SDS011;5772;50.940;6.782;2023-08-08T01:12:31;16.80;;;16.07;;
11431;SDS011;5772;50.940;6.782;2023-08-08T01:14:57;18.27;;;17.47;;
11431;SDS011;5772;50.940;6.782;2023-08-08T01:17:22;17.83;;;17.03;;
11431;SDS011;5772;50.940;6.782;2023-08-08T01:19:49;18.20;;;17.27;;
11431;SDS011;5772;50.940;6.782;2023-08-08T01:22:16;19.00;;;18.20;;
11431;SDS011;5772;50.940;6.782;2023-08-08T01:24:50;19.13;;;17.93;;
11431;SDS011;5772;50.940;6.782;2023-08-08T01:27:15;17.90;;;17.03;;
11431;SDS011;5772;50.940;6.782;2023-08-08T01:29:41;19.37;;;18.27;;
11431;SDS011;5772;50.940;6.782;2023-08-08T01:32:07;18.10;;;17.30;;
11431;SDS011;5772;50.940;6.782;2023-08-08T01:34:32;19.10;;;18.23;;
11431;SDS011;5772;50.940;6.782;2023-08-08T01:36:59;18.37;;;17.57;;
11431;SDS011;5772;50.940;6.782;2023-08-08T01:39:29;20.10;;;19.00;;
11431;SDS011;5772;50.940;6.782;2023-08-08T01:41:56;18.77;;;17.63;;
11431;SDS011;5772;50.940;6.782;2023-08-08T01:44:24;19.00;;;18.20;;
11431;SDS011;5772;50.940;6.782;2023-08-08T01:46:50;19.70;;;18.70;;
11431;SDS011;5772;50.940;6.782;2023-08-08T01:49:16;18.23;;;17.33;;
11431;SDS011;5772;50.940;6.782;2023-08-08T01:51:41;17.90;;;17.20;;
11431;SDS011;5772;50.940;6.782;2023-08-08T01:54:07;18.90;;;18.10;;
11431;SDS011;5772;50.940;6.782;2023-08-08T01:56:32;19.67;;;18.23;;
11431;SDS011;5772;50.940;6.782;2023-08-08T01:58:59;18.87;;;17.90;;
11431;SDS011;5772;50.940;6.782;2023-08-08T02:01:24;18.80;;;18.00;;
11431;SDS011;5772;50.940;6.782;2023-08-08T02:03:49;18.80;;;17.77;;
11431;SDS011;5772;50.940;6.782;2023-08-08T02:06:15;19.30;;;18.30;;
11431;SDS011;5772;50.940;6.782;2023-08-08T02:08:40;19.33;;;18.53;;
11431;SDS011;5772;50.940;6.782;2023-08-08T02:11:05;18.57;;;17.67;;
11431;SDS011;5772;50.940;6.782;2023-08-08T02:13:31;19.13;;;18.10;;
11431;SDS011;5772;50.940;6.782;2023-08-08T02:15:57;20.23;;;19.23;;
11431;SDS011;5772;50.940;6.782;2023-08-08T02:18:23;19.80;;;18.80;;
11431;SDS011;5772;50.940;6.782;2023-08-08T02:20:48;20.07;;;19.27;;
11431;SDS011;5772;50.940;6.782;2023-08-08T02:23:14;18.57;;;17.80;;
11431;SDS011;5772;50.940;6.782;2023-08-08T02:25:39;18.73;;;17.93;;
11431;SDS011;5772;50.940;6.782;2023-08-08T02:28:04;18.77;;;17.97;;
11431;SDS011;5772;50.940;6.782;2023-08-08T02:30:30;20.10;;;19.10;;
11431;SDS011;5772;50.940;6.782;2023-08-08T02:32:57;19.20;;;18.40;;
11431;SDS011;5772;50.940;6.782;2023-08-08T02:35:23;19.20;;;18.40;;
11431;SDS011;5772;50.940;6.782;2023-08-08T02:37:48;19.13;;;18.33;;
11431;SDS011;5772;50.940;6.782;2023-08-08T02:40:13;20.63;;;19.63;;
11431;SDS011;5772;50.940;6.782;2023-08-08T02:42:39;19.80;;;18.90;;
11431;SDS011;5772;50.940;6.782;2023-08-08T02:45:05;20.13;;;19.20;;
11431;SDS011;5772;50.940;6.782;2023-08-08T02:47:31;20.30;;;19.47;;
11431;SDS011;5772;50.940;6.782;2023-08-08T02:49:58;19.23;;;18.43;;
11431;SDS011;5772;50.940;6.782;2023-08-08T02:52:23;20.57;;;19.57;;
11431;SDS011;5772;50.940;6.782;2023-08-08T02:54:48;18.93;;;18.13;;
11431;SDS011;5772;50.940;6.782;2023-08-08T02:57:15;18.80;;;18.00;;
11431;SDS011;5772;50.940;6.782;2023-08-08T02:59:40;19.20;;;18.20;;
11431;SDS011;5772;50.940;6.782;2023-08-08T03:02:06;18.50;;;17.30;;
11431;SDS011;5772;50.940;6.782;2023-08-08T03:04:31;19.53;;;18.53;;
11431;SDS011;5772;50.940;6.782;2023-08-08T03:06:58;19.10;;;18.10;;
11431;SDS011;5772;50.940;6.782;2023-08-08T03:09:23;20.60;;;19.80;;
11431;SDS011;5772;50.940;6.782;2023-08-08T03:11:48;19.50;;;18.47;;
11431;SDS011;5772;50.940;6.782;2023-08-08T03:14:14;19.90;;;18.77;;
11431;SDS011;5772;50.940;6.782;2023-08-08T03:16:40;18.33;;;17.40;;
11431;SDS011;5772;50.940;6.782;2023-08-08T03:19:05;19.00;;;18.03;;
11431;SDS011;5772;50.940;6.782;2023-08-08T03:21:30;21.30;;;20.40;;
11431;SDS011;5772;50.940;6.782;2023-08-08T03:23:57;19.60;;;18.63;;
11431;SDS011;5772;50.940;6.782;2023-08-08T03:26:23;19.80;;;19.00;;
11431;SDS011;5772;50.940;6.782;2023-08-08T03:28:48;19.07;;;17.77;;
11431;SDS011;5772;50.940;6.782;2023-08-08T03:31:13;19.67;;;18.57;;
11431;SDS011;5772;50.940;6.782;2023-08-08T03:33:39;19.80;;;19.00;;
11431;SDS011;5772;50.940;6.782;2023-08-08T03:36:04;20.40;;;19.50;;
11431;SDS011;5772;50.940;6.782;2023-08-08T03:38:29;19.63;;;18.43;;
11431;SDS011;5772;50.940;6.782;2023-08-08T03:40:56;18.73;;;17.93;;
11431;SDS011;5772;50.940;6.782;2023-08-08T03:43:21;20.37;;;19.40;;
11431;SDS011;5772;50.940;6.782;2023-08-08T03:45:47;20.43;;;19.50;;
11431;SDS011;5772;50.940;6.782;2023-08-08T03:48:12;19.80;;;18.87;;
11431;SDS011;5772;50.940;6.782;2023-08-08T03:50:37;20.70;;;19.60;;
11431;SDS011;5772;50.940;6.782;2023-08-08T03:53:03;21.50;;;20.50;;
11431;SDS011;5772;50.940;6.782;2023-08-08T03:55:28;20.97;;;19.93;;
11431;SDS011;5772;50.940;6.782;2023-08-08T03:57:55;22.63;;;21.57;;
11431;SDS011;5772;50.940;6.782;2023-08-08T04:00:21;21.00;;;19.93;;
11431;SDS011;5772;50.940;6.782;2023-08-08T04:02:46;22.07;;;21.07;;
11431;SDS011;5772;50.940;6.782;2023-08-08T04:05:11;19.50;;;18.70;;
11431;SDS011;5772;50.940;6.782;2023-08-08T04:07:37;22.33;;;21.10;;
11431;SDS011;5772;50.940;6.782;2023-08-08T04:10:02;21.60;;;20.60;;
11431;SDS011;5772;50.940;6.782;2023-08-08T04:12:28;21.57;;;20.53;;
11431;SDS011;5772;50.940;6.782;2023-08-08T04:14:55;20.57;;;19.67;;
11431;SDS011;5772;50.940;6.782;2023-08-08T04:17:20;21.47;;;20.37;;
11431;SDS011;5772;50.940;6.782;2023-08-08T04:19:45;22.40;;;21.20;;
11431;SDS011;5772;50.940;6.782;2023-08-08T04:22:11;22.33;;;20.67;;
11431;SDS011;5772;50.940;6.782;2023-08-08T04:24:36;21.63;;;20.37;;
11431;SDS011;5772;50.940;6.782;2023-08-08T04:27:01;22.37;;;21.20;;
11431;SDS011;5772;50.940;6.782;2023-08-08T04:29:27;21.60;;;20.70;;
11431;SDS011;5772;50.940;6.782;2023-08-08T04:31:54;22.60;;;21.40;;
11431;SDS011;5772;50.940;6.782;2023-08-08T04:34:19;23.60;;;21.90;;
11431;SDS011;5772;50.940;6.782;2023-08-08T04:36:44;24.37;;;23.17;;
11431;SDS011;5772;50.940;6.782;2023-08-08T04:39:10;25.10;;;23.77;;
11431;SDS011;5772;50.940;6.782;2023-08-08T04:41:35;24.07;;;22.97;;
11431;SDS011;5772;50.940;6.782;2023-08-08T04:44:00;24.70;;;23.40;;
11431;SDS011;5772;50.940;6.782;2023-08-08T04:46:26;24.90;;;23.63;;
11431;SDS011;5772;50.940;6.782;2023-08-08T04:48:53;25.37;;;23.93;;
11431;SDS011;5772;50.940;6.782;2023-08-08T04:51:18;23.50;;;22.40;;
11431;SDS011;5772;50.940;6.782;2023-08-08T04:53:43;23.27;;;22.20;;
11431;SDS011;5772;50.940;6.782;2023-08-08T04:56:09;21.93;;;20.83;;
11431;SDS011;5772;50.940;6.782;2023-08-08T04:58:34;22.83;;;21.40;;
11431;SDS011;5772;50.940;6.782;2023-08-08T05:00:59;21.00;;;19.90;;
11431;SDS011;5772;50.940;6.782;2023-08-08T05:03:25;21.40;;;19.87;;
11431;SDS011;5772;50.940;6.782;2023-08-08T05:05:51;21.67;;;20.43;;
11431;SDS011;5772;50.940;6.782;2023-08-08T05:08:17;19.20;;;18.30;;
11431;SDS011;5772;50.940;6.782;2023-08-08T05:10:42;21.00;;;19.70;;
11431;SDS011;5772;50.940;6.782;2023-08-08T05:13:08;19.90;;;18.83;;
11431;SDS011;5772;50.940;6.782;2023-08-08T05:15:33;21.93;;;20.80;;
11431;SDS011;5772;50.940;6.782;2023-08-08T05:17:58;20.97;;;19.60;;
11431;SDS011;5772;50.940;6.782;2023-08-08T05:20:24;21.33;;;20.13;;
11431;SDS011;5772;50.940;6.782;2023-08-08T05:22:50;20.73;;;19.70;;
11431;SDS011;5772;50.940;6.782;2023-08-08T05:25:16;21.03;;;19.60;;
11431;SDS011;5772;50.940;6.782;2023-08-08T05:27:41;20.37;;;19.43;;
11431;SDS011;5772;50.940;6.782;2023-08-08T05:30:07;18.53;;;17.47;;
11431;SDS011;5772;50.940;6.782;2023-08-08T05:32:33;19.53;;;18.07;;
11431;SDS011;5772;50.940;6.782;2023-08-08T05:34:58;19.73;;;18.40;;
11431;SDS011;5772;50.940;6.782;2023-08-08T05:37:24;19.17;;;18.27;;
11431;SDS011;5772;50.940;6.782;2023-08-08T05:39:50;18.43;;;17.43;;
11431;SDS011;5772;50.940;6.782;2023-08-08T05:42:16;17.47;;;16.57;;
11431;SDS011;5772;50.940;6.782;2023-08-08T05:44:41;18.70;;;17.37;;
11431;SDS011;5772;50.940;6.782;2023-08-08T05:47:06;18.97;;;17.87;;
11431;SDS011;5772;50.940;6.782;2023-08-08T05:49:32;17.17;;;16.40;;
11431;SDS011;5772;50.940;6.782;2023-08-08T05:51:57;18.53;;;17.63;;
11431;SDS011;5772;50.940;6.782;2023-08-08T05:54:23;18.43;;;17.43;;
11431;SDS011;5772;50.940;6.782;2023-08-08T05:56:49;20.10;;;18.70;;
11431;SDS011;5772;50.940;6.782;2023-08-08T05:59:15;19.47;;;18.57;;
11431;SDS011;5772;50.940;6.782;2023-08-08T06:01:40;19.97;;;18.97;;
11431;SDS011;5772;50.940;6.782;2023-08-08T06:04:05;20.40;;;19.37;;
11431;SDS011;5772;50.940;6.782;2023-08-08T06:06:31;21.90;;;20.67;;
11431;SDS011;5772;50.940;6.782;2023-08-08T06:08:56;22.57;;;21.00;;
11431;SDS011;5772;50.940;6.782;2023-08-08T06:11:21;21.93;;;20.83;;
11431;SDS011;5772;50.940;6.782;2023-08-08T06:13:48;21.83;;;20.70;;
11431;SDS011;5772;50.940;6.782;2023-08-08T06:16:14;23.10;;;22.10;;
11431;SDS011;5772;50.940;6.782;2023-08-08T06:18:39;21.93;;;20.73;;
11431;SDS011;5772;50.940;6.782;2023-08-08T06:21:04;20.30;;;18.83;;
11431;SDS011;5772;50.940;6.782;2023-08-08T06:23:30;17.20;;;16.17;;
11431;SDS011;5772;50.940;6.782;2023-08-08T06:25:55;17.13;;;15.60;;
11431;SDS011;5772;50.940;6.782;2023-08-08T06:28:20;17.90;;;16.63;;
11431;SDS011;5772;50.940;6.782;2023-08-08T06:30:47;18.63;;;17.63;;
11431;SDS011;5772;50.940;6.782;2023-08-08T06:33:12;18.07;;;17.17;;
11431;SDS011;5772;50.940;6.782;2023-08-08T06:35:38;19.57;;;18.67;;
11431;SDS011;5772;50.940;6.782;2023-08-08T06:38:03;22.80;;;21.50;;
11431;SDS011;5772;50.940;6.782;2023-08-08T06:40:29;20.23;;;19.40;;
11431;SDS011;5772;50.940;6.782;2023-08-08T06:42:54;19.27;;;17.90;;
11431;SDS011;5772;50.940;6.782;2023-08-08T06:45:19;19.17;;;18.27;;
11431;SDS011;5772;50.940;6.782;2023-08-08T06:47:46;20.97;;;19.77;;
11431;SDS011;5772;50.940;6.782;2023-08-08T06:50:12;22.87;;;21.83;;
11431;SDS011;5772;50.940;6.782;2023-08-08T06:52:37;24.43;;;22.40;;
11431;SDS011;5772;50.940;6.782;2023-08-08T06:55:03;21.23;;;19.90;;
11431;SDS011;5772;50.940;6.782;2023-08-08T06:57:29;24.73;;;23.63;;
11431;SDS011;5772;50.940;6.782;2023-08-08T06:59:57;20.97;;;19.93;;
11431;SDS011;5772;50.940;6.782;2023-08-08T07:02:22;27.60;;;26.20;;
11431;SDS011;5772;50.940;6.782;2023-08-08T07:04:49;27.80;;;26.47;;
11431;SDS011;5772;50.940;6.782;2023-08-08T07:07:14;37.20;;;35.20;;
11431;SDS011;5772;50.940;6.782;2023-08-08T07:09:40;25.73;;;24.63;;
11431;SDS011;5772;50.940;6.782;2023-08-08T07:12:05;22.07;;;21.10;;
11431;SDS011;5772;50.940;6.782;2023-08-08T07:14:31;21.20;;;20.03;;
11431;SDS011;5772;50.940;6.782;2023-08-08T07:16:56;22.05;;;21.05;;
11431;SDS011;5772;50.940;6.782;2023-08-08T07:19:22;19.90;;;18.80;;
11431;SDS011;5772;50.940;6.782;2023-08-08T07:21:48;18.58;;;17.67;;
11431;SDS011;5772;50.940;6.782;2023-08-08T07:24:14;16.77;;;15.93;;
11431;SDS011;5772;50.940;6.782;2023-08-08T07:26:39;17.87;;;16.83;;
11431;SDS011;5772;50.940;6.782;2023-08-08T07:29:04;20.63;;;19.63;;
11431;SDS011;5772;50.940;6.782;2023-08-08T07:31:30;19.23;;;18.42;;
11431;SDS011;5772;50.940;6.782;2023-08-08T07:33:55;20.27;;;19.25;;
11431;SDS011;5772;50.940;6.782;2023-08-08T07:36:20;18.77;;;17.23;;
11431;SDS011;5772;50.940;6.782;2023-08-08T07:38:47;15.93;;;14.98;;
11431;SDS011;5772;50.940;6.782;2023-08-08T07:41:12;18.50;;;17.50;;
11431;SDS011;5772;50.940;6.782;2023-08-08T07:43:38;18.52;;;17.67;;
11431;SDS011;5772;50.940;6.782;2023-08-08T07:46:03;17.73;;;16.67;;
11431;SDS011;5772;50.940;6.782;2023-08-08T07:48:28;17.75;;;16.85;;
11431;SDS011;5772;50.940;6.782;2023-08-08T07:50:54;16.10;;;15.10;;
11431;SDS011;5772;50.940;6.782;2023-08-08T07:53:19;18.83;;;17.73;;
11431;SDS011;5772;50.940;6.782;2023-08-08T07:55:46;18.08;;;17.27;;
11431;SDS011;5772;50.940;6.782;2023-08-08T07:58:11;20.70;;;19.27;;
11431;SDS011;5772;50.940;6.782;2023-08-08T08:00:36;19.15;;;18.33;;
11431;SDS011;5772;50.940;6.782;2023-08-08T08:03:02;18.40;;;17.45;;
11431;SDS011;5772;50.940;6.782;2023-08-08T08:05:28;19.33;;;18.30;;
11431;SDS011;5772;50.940;6.782;2023-08-08T08:07:53;24.02;;;22.92;;
11431;SDS011;5772;50.940;6.782;2023-08-08T08:10:19;23.85;;;22.50;;
11431;SDS011;5772;50.940;6.782;2023-08-08T08:12:45;21.50;;;20.50;;
11431;SDS011;5772;50.940;6.782;2023-08-08T08:15:11;22.77;;;21.67;;
11431;SDS011;5772;50.940;6.782;2023-08-08T08:17:36;17.10;;;16.10;;
11431;SDS011;5772;50.940;6.782;2023-08-08T08:20:02;18.08;;;16.45;;
11431;SDS011;5772;50.940;6.782;2023-08-08T08:22:27;16.60;;;15.80;;
11431;SDS011;5772;50.940;6.782;2023-08-08T08:24:53;16.17;;;15.30;;
11431;SDS011;5772;50.940;6.782;2023-08-08T08:27:18;15.60;;;14.80;;
11431;SDS011;5772;50.940;6.782;2023-08-08T08:29:45;16.58;;;15.70;;
11431;SDS011;5772;50.940;6.782;2023-08-08T08:32:10;14.07;;;13.48;;
11431;SDS011;5772;50.940;6.782;2023-08-08T08:34:36;14.43;;;13.63;;
11431;SDS011;5772;50.940;6.782;2023-08-08T08:37:01;18.08;;;17.08;;
11431;SDS011;5772;50.940;6.782;2023-08-08T08:39:26;19.55;;;18.52;;
11431;SDS011;5772;50.940;6.782;2023-08-08T08:41:54;21.33;;;20.33;;
11431;SDS011;5772;50.940;6.782;2023-08-08T08:44:24;24.88;;;23.67;;
11431;SDS011;5772;50.940;6.782;2023-08-08T08:46:52;22.58;;;21.52;;
11431;SDS011;5772;50.940;6.782;2023-08-08T08:49:17;26.50;;;24.95;;
11431;SDS011;5772;50.940;6.782;2023-08-08T08:51:43;25.83;;;24.63;;
11431;SDS011;5772;50.940;6.782;2023-08-08T08:54:09;27.30;;;25.88;;
11431;SDS011;5772;50.940;6.782;2023-08-08T08:56:35;27.55;;;26.35;;
11431;SDS011;5772;50.940;6.782;2023-08-08T08:59:00;22.92;;;21.88;;
11431;SDS011;5772;50.940;6.782;2023-08-08T09:01:25;21.60;;;20.35;;
11431;SDS011;5772;50.940;6.782;2023-08-08T09:03:52;22.02;;;20.70;;
11431;SDS011;5772;50.940;6.782;2023-08-08T09:06:18;18.63;;;17.83;;
11431;SDS011;5772;50.940;6.782;2023-08-08T09:08:43;16.45;;;15.52;;
11431;SDS011;5772;50.940;6.782;2023-08-08T09:11:08;18.17;;;17.17;;
11431;SDS011;5772;50.940;6.782;2023-08-08T09:13:36;15.18;;;14.30;;
11431;SDS011;5772;50.940;6.782;2023-08-08T09:16:01;14.88;;;14.15;;
11431;SDS011;5772;50.940;6.782;2023-08-08T09:18:27;16.33;;;15.57;;
11431;SDS011;5772;50.940;6.782;2023-08-08T09:20:54;20.88;;;19.98;;
11431;SDS011;5772;50.940;6.782;2023-08-08T09:23:19;19.20;;;18.30;;
11431;SDS011;5772;50.940;6.782;2023-08-08T09:25:45;20.30;;;19.38;;
11431;SDS011;5772;50.940;6.782;2023-08-08T09:28:10;24.58;;;23.20;;
11431;SDS011;5772;50.940;6.782;2023-08-08T09:30:36;30.35;;;27.77;;
11431;SDS011;5772;50.940;6.782;2023-08-08T09:33:01;18.92;;;18.13;;
11431;SDS011;5772;50.940;6.782;2023-08-08T09:35:28;16.60;;;15.50;;
11431;SDS011;5772;50.940;6.782;2023-08-08T09:37:55;14.63;;;13.85;;
11431;SDS011;5772;50.940;6.782;2023-08-08T09:40:21;15.57;;;14.77;;
11431;SDS011;5772;50.940;6.782;2023-08-08T09:42:47;14.82;;;13.82;;
11431;SDS011;5772;50.940;6.782;2023-08-08T09:45:13;14.35;;;13.50;;
11431;SDS011;5772;50.940;6.782;2023-08-08T09:47:38;15.30;;;14.50;;
11431;SDS011;5772;50.940;6.782;2023-08-08T09:50:04;15.73;;;14.70;;
11431;SDS011;5772;50.940;6.782;2023-08-08T09:52:31;15.52;;;14.82;;
11431;SDS011;5772;50.940;6.782;2023-08-08T09:54:59;14.40;;;13.55;;
11431;SDS011;5772;50.940;6.782;2023-08-08T09:57:24;14.82;;;14.10;;
11431;SDS011;5772;50.940;6.782;2023-08-08T09:59:50;14.63;;;14.02;;
11431;SDS011;5772;50.940;6.782;2023-08-08T10:02:16;16.35;;;14.88;;
11431;SDS011;5772;50.940;6.782;2023-08-08T10:04:42;16.02;;;15.23;;
11431;SDS011;5772;50.940;6.782;2023-08-08T10:07:08;15.52;;;14.30;;
11431;SDS011;5772;50.940;6.782;2023-08-08T10:09:34;15.18;;;14.48;;
11431;SDS011;5772;50.940;6.782;2023-08-08T10:12:00;15.55;;;14.85;;
11431;SDS011;5772;50.940;6.782;2023-08-08T10:14:28;15.07;;;14.00;;
11431;SDS011;5772;50.940;6.782;2023-08-08T10:16:55;15.88;;;15.18;;
11431;SDS011;5772;50.940;6.782;2023-08-08T10:19:21;15.25;;;14.55;;
11431;SDS011;5772;50.940;6.782;2023-08-08T10:21:47;14.95;;;14.15;;
11431;SDS011;5772;50.940;6.782;2023-08-08T10:24:12;14.48;;;13.77;;
11431;SDS011;5772;50.940;6.782;2023-08-08T10:26:50;13.73;;;12.98;;
11431;SDS011;5772;50.940;6.782;2023-08-08T10:29:18;13.65;;;12.73;;
11431;SDS011;5772;50.940;6.782;2023-08-08T10:31:50;13.50;;;12.85;;
11431;SDS011;5772;50.940;6.782;2023-08-08T10:34:19;13.18;;;12.50;;
11431;SDS011;5772;50.940;6.782;2023-08-08T10:36:48;13.73;;;13.13;;
11431;SDS011;5772;50.940;6.782;2023-08-08T10:39:17;13.88;;;13.07;;
11431;SDS011;5772;50.940;6.782;2023-08-08T10:41:44;13.73;;;13.10;;
11431;SDS011;5772;50.940;6.782;2023-08-08T10:44:11;14.00;;;13.30;;
11431;SDS011;5772;50.940;6.782;2023-08-08T10:46:39;13.93;;;13.27;;
11431;SDS011;5772;50.940;6.782;2023-08-08T10:49:06;13.93;;;13.30;;
11431;SDS011;5772;50.940;6.782;2023-08-08T10:51:32;15.73;;;14.88;;
11431;SDS011;5772;50.940;6.782;2023-08-08T10:53:58;15.25;;;14.30;;
11431;SDS011;5772;50.940;6.782;2023-08-08T10:56:28;15.10;;;14.35;;
11431;SDS011;5772;50.940;6.782;2023-08-08T10:58:55;18.67;;;17.77;;
11431;SDS011;5772;50.940;6.782;2023-08-08T11:01:21;19.05;;;18.08;;
11431;SDS011;5772;50.940;6.782;2023-08-08T11:03:51;18.58;;;17.40;;
11431;SDS011;5772;50.940;6.782;2023-08-08T11:06:16;17.58;;;16.50;;
11431;SDS011;5772;50.940;6.782;2023-08-08T11:08:42;16.60;;;15.80;;
11431;SDS011;5772;50.940;6.782;2023-08-08T11:13:35;16.70;;;16.00;;
11431;SDS011;5772;50.940;6.782;2023-08-08T11:16:00;15.75;;;14.80;;
11431;SDS011;5772;50.940;6.782;2023-08-08T11:18:25;15.23;;;14.60;;
11431;SDS011;5772;50.940;6.782;2023-08-08T11:20:52;17.00;;;16.08;;
11431;SDS011;5772;50.940;6.782;2023-08-08T11:23:18;15.77;;;14.90;;
11431;SDS011;5772;50.940;6.782;2023-08-08T11:25:44;15.90;;;15.20;;
11431;SDS011;5772;50.940;6.782;2023-08-08T11:28:11;16.00;;;15.15;;
11431;SDS011;5772;50.940;6.782;2023-08-08T11:30:37;15.93;;;15.18;;
11431;SDS011;5772;50.940;6.782;2023-08-08T11:33:03;14.85;;;14.25;;
11431;SDS011;5772;50.940;6.782;2023-08-08T11:35:29;14.85;;;13.90;;
11431;SDS011;5772;50.940;6.782;2023-08-08T11:37:56;13.30;;;12.60;;
11431;SDS011;5772;50.940;6.782;2023-08-08T11:40:22;14.40;;;13.70;;
11431;SDS011;5772;50.940;6.782;2023-08-08T11:42:48;14.00;;;13.35;;
11431;SDS011;5772;50.940;6.782;2023-08-08T11:45:14;14.30;;;13.70;;
11431;SDS011;5772;50.940;6.782;2023-08-08T11:47:39;16.08;;;15.38;;
11431;SDS011;5772;50.940;6.782;2023-08-08T11:50:06;14.68;;;14.07;;
11431;SDS011;5772;50.940;6.782;2023-08-08T11:52:33;15.68;;;14.68;;
11431;SDS011;5772;50.940;6.782;2023-08-08T11:55:01;14.98;;;14.27;;
11431;SDS011;5772;50.940;6.782;2023-08-08T11:57:26;17.60;;;16.80;;
11431;SDS011;5772;50.940;6.782;2023-08-08T11:59:52;13.85;;;13.25;;
11431;SDS011;5772;50.940;6.782;2023-08-08T12:02:17;15.40;;;14.57;;
11431;SDS011;5772;50.940;6.782;2023-08-08T12:04:43;16.60;;;15.77;;
11431;SDS011;5772;50.940;6.782;2023-08-08T12:07:09;16.73;;;15.55;;
11431;SDS011;5772;50.940;6.782;2023-08-08T12:09:36;17.45;;;16.75;;
11431;SDS011;5772;50.940;6.782;2023-08-08T12:12:03;17.30;;;16.50;;
11431;SDS011;5772;50.940;6.782;2023-08-08T12:14:28;15.95;;;15.25;;
11431;SDS011;5772;50.940;6.782;2023-08-08T12:16:54;16.20;;;15.43;;
11431;SDS011;5772;50.940;6.782;2023-08-08T12:19:22;16.30;;;15.50;;
11431;SDS011;5772;50.940;6.782;2023-08-08T12:21:47;15.43;;;14.57;;
11431;SDS011;5772;50.940;6.782;2023-08-08T12:24:13;16.90;;;16.17;;
11431;SDS011;5772;50.940;6.782;2023-08-08T12:26:38;16.45;;;15.45;;
11431;SDS011;5772;50.940;6.782;2023-08-08T12:29:07;17.67;;;16.90;;
11431;SDS011;5772;50.940;6.782;2023-08-08T12:31:32;15.15;;;14.05;;
11431;SDS011;5772;50.940;6.782;2023-08-08T12:33:57;15.55;;;14.75;;
11431;SDS011;5772;50.940;6.782;2023-08-08T12:36:23;16.92;;;16.23;;
11431;SDS011;5772;50.940;6.782;2023-08-08T12:38:48;18.67;;;17.77;;
11431;SDS011;5772;50.940;6.782;2023-08-08T12:41:14;16.55;;;15.75;;
11431;SDS011;5772;50.940;6.782;2023-08-08T12:43:39;17.95;;;17.15;;
11431;SDS011;5772;50.940;6.782;2023-08-08T12:46:06;15.80;;;15.10;;
11431;SDS011;5772;50.940;6.782;2023-08-08T12:48:31;15.27;;;14.68;;
11431;SDS011;5772;50.940;6.782;2023-08-08T12:50:57;16.23;;;15.48;;
11431;SDS011;5772;50.940;6.782;2023-08-08T12:53:22;15.48;;;14.63;;
11431;SDS011;5772;50.940;6.782;2023-08-08T12:55:47;16.23;;;15.52;;
11431;SDS011;5772;50.940;6.782;2023-08-08T12:58:13;16.63;;;15.70;;
11431;SDS011;5772;50.940;6.782;2023-08-08T13:00:38;15.65;;;14.95;;
11431;SDS011;5772;50.940;6.782;2023-08-08T13:03:05;16.50;;;15.80;;
11431;SDS011;5772;50.940;6.782;2023-08-08T13:05:30;20.40;;;19.52;;
11431;SDS011;5772;50.940;6.782;2023-08-08T13:07:56;20.15;;;19.25;;
11431;SDS011;5772;50.940;6.782;2023-08-08T13:10:21;22.13;;;21.23;;
11431;SDS011;5772;50.940;6.782;2023-08-08T13:12:49;22.08;;;21.13;;
11431;SDS011;5772;50.940;6.782;2023-08-08T13:15:15;17.77;;;16.95;;
11431;SDS011;5772;50.940;6.782;2023-08-08T13:17:40;17.35;;;16.65;;
11431;SDS011;5772;50.940;6.782;2023-08-08T13:20:07;17.27;;;16.48;;
11431;SDS011;5772;50.940;6.782;2023-08-08T13:22:34;19.92;;;19.13;;
11431;SDS011;5772;50.940;6.782;2023-08-08T13:24:59;20.15;;;19.10;;
11431;SDS011;5772;50.940;6.782;2023-08-08T13:27:24;21.10;;;20.10;;
11431;SDS011;5772;50.940;6.782;2023-08-08T13:29:50;21.67;;;20.45;;
11431;SDS011;5772;50.940;6.782;2023-08-08T13:32:15;20.10;;;19.13;;
11431;SDS011;5772;50.940;6.782;2023-08-08T13:34:41;18.10;;;17.30;;
11431;SDS011;5772;50.940;6.782;2023-08-08T13:37:07;19.13;;;18.33;;
11431;SDS011;5772;50.940;6.782;2023-08-08T13:39:33;20.00;;;19.00;;
11431;SDS011;5772;50.940;6.782;2023-08-08T13:41:58;21.40;;;20.40;;
11431;SDS011;5772;50.940;6.782;2023-08-08T13:44:23;21.97;;;21.00;;
11431;SDS011;5772;50.940;6.782;2023-08-08T13:46:49;19.43;;;18.43;;
11431;SDS011;5772;50.940;6.782;2023-08-08T13:49:14;29.27;;;28.00;;
11431;SDS011;5772;50.940;6.782;2023-08-08T13:51:39;33.27;;;31.87;;
11431;SDS011;5772;50.940;6.782;2023-08-08T13:54:06;19.40;;;18.60;;
11431;SDS011;5772;50.940;6.782;2023-08-08T13:56:31;28.17;;;26.93;;
11431;SDS011;5772;50.940;6.782;2023-08-08T13:58:57;27.90;;;26.70;;
11431;SDS011;5772;50.940;6.782;2023-08-08T14:01:22;22.03;;;21.13;;
11431;SDS011;5772;50.940;6.782;2023-08-08T14:03:47;23.53;;;22.57;;
11431;SDS011;5772;50.940;6.782;2023-08-08T14:06:13;26.23;;;25.13;;
11431;SDS011;5772;50.940;6.782;2023-08-08T14:08:38;16.67;;;15.87;;
11431;SDS011;5772;50.940;6.782;2023-08-08T14:11:05;21.33;;;20.30;;
11431;SDS011;5772;50.940;6.782;2023-08-08T14:13:30;16.43;;;15.73;;
11431;SDS011;5772;50.940;6.782;2023-08-08T14:15:56;16.83;;;16.08;;
11431;SDS011;5772;50.940;6.782;2023-08-08T14:18:21;16.20;;;15.50;;
11431;SDS011;5772;50.940;6.782;2023-08-08T14:20:46;15.65;;;14.88;;
11431;SDS011;5772;50.940;6.782;2023-08-08T14:23:12;16.65;;;15.90;;
11431;SDS011;5772;50.940;6.782;2023-08-08T14:25:37;14.38;;;13.55;;
11431;SDS011;5772;50.940;6.782;2023-08-08T14:28:04;15.02;;;14.25;;